Time;durP1;ratioP1;P1;durP2;ratioP2;P2;SDS_P1;SDS_P2;PMS_P1;PMS_P2;Temp;Humidity;BMP_temperature;BMP_pressure;BME280_temperature;BME280_humidity;BME280_pressure;Samples;Min_cycle;Max_cycle;Signal;HPM_P1;HPM_P2
2021/05/31 00:00:36;;;;;;;6.43;3.40;;;17.50;99.10;;;;;;5081218;28;20194;-73
2021/05/31 00:03:01;;;;;;;7.07;3.23;;;17.40;98.90;;;;;;5085472;28;20310;-73
2021/05/31 00:05:27;;;;;;;5.73;3.17;;;17.30;99.50;;;;;;5088878;28;20667;-73
2021/05/31 00:07:55;;;;;;;7.83;3.40;;;17.30;99.90;;;;;;5086376;28;20235;-73
2021/05/31 00:10:22;;;;;;;7.60;3.53;;;17.20;99.90;;;;;;5084112;28;20595;-73
2021/05/31 00:12:48;;;;;;;7.27;3.53;;;17.20;99.90;;;;;;5081553;28;20236;-72
2021/05/31 00:15:14;;;;;;;7.30;3.50;;;17.10;99.90;;;;;;5069821;28;20196;-73
2021/05/31 00:17:40;;;;;;;8.30;3.57;;;17.10;99.90;;;;;;5076597;28;20199;-72
2021/05/31 00:20:08;;;;;;;7.57;3.60;;;17.20;99.90;;;;;;5067870;28;20182;-73
2021/05/31 00:22:34;;;;;;;6.57;3.63;;;17.20;99.90;;;;;;5088337;28;20662;-72
2021/05/31 00:24:59;;;;;;;7.50;3.67;;;17.20;99.90;;;;;;5068268;28;20237;-73
2021/05/31 00:27:25;;;;;;;6.00;3.50;;;17.10;99.90;;;;;;5075252;28;20183;-73
2021/05/31 00:29:51;;;;;;;7.10;3.57;;;17.10;99.90;;;;;;5071454;28;20237;-73
2021/05/31 00:32:18;;;;;;;6.60;3.20;;;17.10;99.90;;;;;;5091644;28;20207;-73
2021/05/31 00:34:44;;;;;;;8.37;3.53;;;17.20;99.90;;;;;;5089924;28;20645;-73
2021/05/31 00:37:09;;;;;;;8.00;4.00;;;17.10;99.90;;;;;;5088151;28;20256;-73
2021/05/31 00:39:35;;;;;;;7.13;3.63;;;17.00;99.90;;;;;;5068963;28;20214;-73
2021/05/31 00:42:01;;;;;;;6.67;3.37;;;17.00;99.90;;;;;;5067033;28;21713;-73
2021/05/31 00:44:27;;;;;;;6.53;3.67;;;16.90;99.90;;;;;;5067377;28;20210;-73
2021/05/31 00:46:53;;;;;;;8.50;4.07;;;16.80;99.90;;;;;;5088852;28;20190;-72
2021/05/31 00:49:22;;;;;;;7.70;3.90;;;16.70;99.90;;;;;;5089774;28;20216;-73
2021/05/31 00:51:48;;;;;;;8.50;4.53;;;16.70;99.90;;;;;;5069621;28;20198;-72
2021/05/31 00:54:14;;;;;;;10.40;4.20;;;16.60;99.90;;;;;;5088976;28;20197;-72
2021/05/31 00:56:41;;;;;;;8.97;4.07;;;16.50;99.90;;;;;;5072078;28;20669;-73
2021/05/31 00:59:09;;;;;;;6.90;3.80;;;16.40;99.90;;;;;;5089573;28;20185;-73
2021/05/31 01:01:35;;;;;;;5.70;3.73;;;16.40;99.90;;;;;;5061589;28;20186;-72
2021/05/31 01:04:01;;;;;;;7.70;4.20;;;16.40;99.90;;;;;;5088382;28;20719;-72
2021/05/31 01:06:31;;;;;;;8.13;4.00;;;16.40;99.90;;;;;;5071207;28;20183;-72
2021/05/31 01:09:14;;;;;;;7.17;3.93;;;16.40;99.90;;;;;;5074731;28;20621;-72
2021/05/31 01:12:07;;;;;;;5.83;3.40;;;16.40;99.90;;;;;;5091492;28;20671;-72
2021/05/31 01:15:04;;;;;;;8.57;4.07;;;16.40;99.90;;;;;;5056558;28;20498;-72
2021/05/31 01:17:55;;;;;;;7.60;3.73;;;16.50;99.90;;;;;;5085223;28;20182;-72
2021/05/31 01:20:34;;;;;;;7.43;3.63;;;16.50;99.90;;;;;;5071259;28;20190;-72
2021/05/31 01:23:03;;;;;;;7.90;3.80;;;16.50;99.90;;;;;;5071822;28;20326;-72
2021/05/31 01:25:38;;;;;;;8.57;3.80;;;16.50;99.90;;;;;;5068445;28;20272;-73
2021/05/31 01:28:42;;;;;;;6.37;3.50;;;16.40;99.90;;;;;;5053362;28;20189;-72
2021/05/31 01:31:08;;;;;;;7.30;3.70;;;16.40;99.90;;;;;;5088132;28;20214;-72
2021/05/31 01:33:35;;;;;;;6.97;3.70;;;16.40;99.90;;;;;;5084108;28;20182;-72
2021/05/31 01:36:03;;;;;;;8.43;3.83;;;16.40;99.90;;;;;;5088720;28;20200;-72
2021/05/31 01:38:31;;;;;;;9.10;4.10;;;16.30;99.90;;;;;;5087745;28;20317;-73
2021/05/31 01:40:59;;;;;;;8.13;3.90;;;16.30;99.90;;;;;;5086319;28;20184;-72
2021/05/31 01:43:25;;;;;;;9.13;4.03;;;16.30;99.90;;;;;;5089479;28;20220;-72
2021/05/31 01:45:51;;;;;;;9.17;4.03;;;16.20;99.90;;;;;;5087861;28;20523;-72
2021/05/31 01:48:17;;;;;;;7.07;4.10;;;16.30;99.90;;;;;;5087583;28;20248;-72
2021/05/31 01:50:43;;;;;;;6.00;3.67;;;16.20;99.90;;;;;;5088669;28;20172;-72
2021/05/31 01:53:10;;;;;;;7.63;4.43;;;16.10;99.90;;;;;;5090608;28;20229;-72
2021/05/31 01:55:39;;;;;;;8.60;4.00;;;16.10;99.90;;;;;;5071133;28;20201;-72
2021/05/31 01:58:06;;;;;;;8.40;4.33;;;16.10;99.90;;;;;;5069288;28;20277;-72
2021/05/31 02:00:33;;;;;;;8.03;3.80;;;16.10;99.90;;;;;;5071253;28;20562;-72
2021/05/31 02:03:00;;;;;;;9.20;4.47;;;16.10;99.90;;;;;;5086684;28;20603;-72
2021/05/31 02:05:26;;;;;;;7.73;4.43;;;16.10;99.90;;;;;;5089836;28;20319;-72
2021/05/31 02:07:52;;;;;;;10.73;4.50;;;16.10;99.90;;;;;;5082625;28;20190;-72
2021/05/31 02:10:18;;;;;;;7.90;4.13;;;16.00;99.90;;;;;;5070803;28;20664;-72
2021/05/31 02:13:00;;;;;;;8.97;4.13;;;15.90;99.90;;;;;;5088842;28;20200;-72
2021/05/31 02:15:40;;;;;;;7.80;3.90;;;15.80;99.90;;;;;;5086251;28;20711;-72
2021/05/31 02:18:24;;;;;;;8.20;4.17;;;15.80;99.90;;;;;;5049841;28;20180;-73
2021/05/31 02:20:54;;;;;;;7.97;4.23;;;15.70;99.90;;;;;;5054457;28;20281;-72
2021/05/31 02:23:20;;;;;;;8.30;4.20;;;15.70;99.90;;;;;;5084015;28;20199;-72
2021/05/31 02:25:48;;;;;;;9.43;4.43;;;15.70;99.90;;;;;;5054294;28;20553;-72
2021/05/31 02:28:14;;;;;;;12.27;4.77;;;15.90;99.90;;;;;;5053632;28;20193;-72
2021/05/31 02:30:41;;;;;;;9.23;4.33;;;15.80;99.90;;;;;;5089048;28;20189;-72
2021/05/31 02:33:07;;;;;;;12.43;5.20;;;15.70;99.90;;;;;;5070111;28;20662;-72
2021/05/31 02:35:35;;;;;;;10.17;4.40;;;15.70;99.90;;;;;;5069298;28;20194;-72
2021/05/31 02:38:02;;;;;;;9.57;4.50;;;15.70;99.90;;;;;;5086061;28;20267;-72
2021/05/31 02:40:29;;;;;;;7.73;4.23;;;15.60;99.90;;;;;;5089981;28;20185;-72
2021/05/31 02:42:57;;;;;;;8.40;5.00;;;15.50;99.90;;;;;;5084134;28;20247;-72
2021/05/31 02:45:24;;;;;;;8.67;4.40;;;15.40;99.90;;;;;;5069664;28;20183;-72
2021/05/31 02:47:51;;;;;;;8.47;4.77;;;15.30;99.90;;;;;;5081745;28;20181;-72
2021/05/31 02:50:17;;;;;;;7.87;4.43;;;15.30;99.90;;;;;;5087850;28;20226;-72
2021/05/31 02:52:43;;;;;;;10.03;5.00;;;15.20;99.90;;;;;;5090197;28;20205;-72
2021/05/31 02:55:15;;;;;;;10.80;4.70;;;15.10;99.90;;;;;;5087154;28;20649;-72
2021/05/31 02:57:42;;;;;;;10.87;5.17;;;15.10;99.90;;;;;;5071898;28;20189;-72
2021/05/31 03:00:12;;;;;;;9.90;5.30;;;15.20;99.90;;;;;;5055139;28;20182;-72
2021/05/31 03:02:38;;;;;;;10.00;5.10;;;15.20;99.90;;;;;;5088099;28;20248;-72
2021/05/31 03:05:07;;;;;;;9.53;5.07;;;15.30;99.90;;;;;;5089860;28;20659;-72
2021/05/31 03:07:32;;;;;;;10.07;5.43;;;15.20;99.90;;;;;;5068558;28;20190;-72
2021/05/31 03:09:58;;;;;;;10.90;5.80;;;15.20;99.90;;;;;;5087375;28;20183;-72
2021/05/31 03:12:24;;;;;;;10.33;5.43;;;15.20;99.90;;;;;;5088362;28;20279;-72
2021/05/31 03:14:51;;;;;;;10.97;5.47;;;15.10;99.90;;;;;;5089290;28;20204;-72
2021/05/31 03:17:18;;;;;;;8.60;5.13;;;15.00;99.90;;;;;;5086245;28;20185;-73
2021/05/31 03:19:44;;;;;;;11.47;5.73;;;15.00;99.90;;;;;;5084938;28;20190;-73
2021/05/31 03:22:09;;;;;;;11.30;5.40;;;14.90;99.90;;;;;;5084201;28;20536;-72
2021/05/31 03:24:35;;;;;;;10.40;5.93;;;14.90;99.90;;;;;;5086960;28;20686;-72
2021/05/31 03:27:02;;;;;;;13.33;6.03;;;14.90;99.90;;;;;;5086484;28;20654;-72
2021/05/31 03:29:28;;;;;;;10.83;5.70;;;14.90;99.90;;;;;;5074383;28;20652;-72
2021/05/31 03:31:54;;;;;;;13.13;5.80;;;14.80;99.90;;;;;;5084669;28;20193;-72
2021/05/31 03:34:19;;;;;;;11.03;5.57;;;14.60;99.90;;;;;;5079374;28;20259;-72
2021/05/31 03:36:45;;;;;;;12.70;5.63;;;14.70;99.90;;;;;;5087163;28;20657;-72
2021/05/31 03:39:11;;;;;;;11.57;6.07;;;14.70;99.90;;;;;;5085516;28;20224;-72
2021/05/31 03:41:36;;;;;;;11.07;5.93;;;14.80;99.90;;;;;;5080580;28;20571;-72
2021/05/31 03:44:02;;;;;;;12.37;5.60;;;14.80;99.90;;;;;;5087534;28;20228;-72
2021/05/31 03:46:28;;;;;;;12.13;5.90;;;14.70;99.90;;;;;;5080709;28;20296;-72
2021/05/31 03:48:54;;;;;;;10.13;5.53;;;14.70;99.90;;;;;;5085329;28;20178;-72
2021/05/31 03:51:21;;;;;;;13.30;6.27;;;14.70;99.90;;;;;;5089509;28;20183;-72
2021/05/31 03:53:47;;;;;;;13.50;6.67;;;14.70;99.90;;;;;;5083927;28;20176;-72
2021/05/31 03:56:13;;;;;;;12.83;6.60;;;14.70;99.90;;;;;;5088794;28;20576;-72
2021/05/31 03:58:41;;;;;;;14.40;6.30;;;14.70;99.90;;;;;;5086155;28;20188;-72
2021/05/31 04:01:08;;;;;;;11.70;5.87;;;14.80;99.90;;;;;;5094793;28;20199;-72
2021/05/31 04:03:35;;;;;;;12.30;6.33;;;14.80;99.90;;;;;;5083752;28;20240;-72
2021/05/31 04:11:40;;;;;;;12.73;6.73;;;14.80;99.90;;;;;;5092651;28;20191;-72
2021/05/31 04:14:06;;;;;;;12.43;6.40;;;14.70;99.90;;;;;;5091011;28;20185;-72
2021/05/31 04:16:32;;;;;;;12.47;6.23;;;14.70;99.90;;;;;;5093301;28;20636;-72
2021/05/31 04:18:59;;;;;;;12.17;6.67;;;14.80;99.90;;;;;;5072477;28;20186;-73
2021/05/31 04:21:24;;;;;;;12.87;6.40;;;14.90;99.90;;;;;;5088679;28;20258;-72
2021/05/31 04:23:50;;;;;;;14.00;6.77;;;15.00;99.90;;;;;;5091643;28;20610;-72
2021/05/31 04:26:16;;;;;;;12.93;6.70;;;15.20;99.90;;;;;;5090918;28;20263;-72
2021/05/31 04:28:42;;;;;;;12.03;5.90;;;15.60;99.90;;;;;;5093143;28;20172;-72
2021/05/31 04:31:07;;;;;;;13.40;7.23;;;16.60;99.90;;;;;;5091449;28;20185;-71
2021/05/31 04:33:33;;;;;;;16.73;6.83;;;18.10;99.90;;;;;;5075338;28;20692;-72
2021/05/31 04:35:59;;;;;;;10.83;5.80;;;19.40;99.90;;;;;;5091059;28;20230;-72
2021/05/31 04:38:25;;;;;;;10.57;5.93;;;20.30;99.90;;;;;;5090670;28;20227;-72
2021/05/31 04:40:51;;;;;;;11.27;6.07;;;21.10;99.90;;;;;;5093240;28;20224;-72
2021/05/31 04:43:17;;;;;;;10.03;5.40;;;21.70;99.90;;;;;;5072011;28;20206;-72
2021/05/31 04:45:43;;;;;;;12.47;5.30;;;22.20;99.90;;;;;;5091253;28;20172;-72
2021/05/31 04:48:10;;;;;;;11.60;5.37;;;22.70;99.90;;;;;;5089891;28;20299;-72
2021/05/31 04:50:36;;;;;;;10.77;5.03;;;23.30;99.90;;;;;;5076712;28;20257;-72
2021/05/31 04:53:02;;;;;;;10.27;4.70;;;23.90;98.80;;;;;;5084655;28;20240;-72
2021/05/31 04:55:27;;;;;;;9.57;5.20;;;24.60;97.10;;;;;;5094292;28;20190;-72
2021/05/31 04:57:53;;;;;;;9.60;4.70;;;25.20;94.40;;;;;;5086198;28;20198;-72
2021/05/31 05:00:19;;;;;;;8.37;4.80;;;25.80;92.10;;;;;;5095741;28;20628;-72
2021/05/31 05:02:45;;;;;;;12.90;5.20;;;26.30;91.30;;;;;;5086886;28;20211;-72
2021/05/31 05:05:12;;;;;;;9.68;5.15;;;26.70;89.50;;;;;;5095008;28;20183;-73
2021/05/31 05:07:47;;;;;;;9.35;5.20;;;27.40;86.70;;;;;;5092113;28;20171;-74
2021/05/31 05:10:18;;;;;;;13.23;5.28;;;27.90;81.70;;;;;;5088925;28;20593;-72
2021/05/31 05:12:52;;;;;;;9.98;5.30;;;28.30;78.40;;;;;;5084242;28;20274;-71
2021/05/31 05:15:19;;;;;;;11.00;4.97;;;28.60;75.30;;;;;;5085441;28;20278;-72
2021/05/31 05:17:46;;;;;;;11.68;5.43;;;28.60;74.10;;;;;;5090845;28;20289;-72
2021/05/31 05:20:13;;;;;;;8.15;4.63;;;28.80;73.20;;;;;;5083457;28;20261;-73
2021/05/31 05:22:39;;;;;;;7.13;4.45;;;29.00;71.80;;;;;;5089124;28;20214;-73
2021/05/31 05:25:06;;;;;;;7.70;4.60;;;29.20;71.70;;;;;;5091293;28;20186;-73
2021/05/31 05:27:32;;;;;;;9.68;4.75;;;29.30;70.80;;;;;;5070986;28;20655;-73
2021/05/31 05:29:57;;;;;;;12.73;4.75;;;29.70;69.70;;;;;;5091333;28;20199;-73
2021/05/31 05:32:23;;;;;;;9.63;4.85;;;30.00;68.80;;;;;;5083794;28;20179;-73
2021/05/31 05:34:50;;;;;;;8.00;4.90;;;30.40;66.90;;;;;;5087866;28;20705;-73
2021/05/31 05:37:43;;;;;;;9.48;4.55;;;30.60;66.50;;;;;;5087110;28;20187;-72
2021/05/31 05:47:47;;;;;;;11.30;4.80;;;30.40;63.00;;;;;;5086792;28;20237;-72
2021/05/31 05:50:18;;;;;;;8.48;4.80;;;30.90;62.20;;;;;;5090248;28;20185;-72
2021/05/31 05:52:44;;;;;;;6.78;4.10;;;31.50;62.30;;;;;;5087350;28;20269;-72
2021/05/31 05:55:11;;;;;;;8.90;4.32;;;32.00;60.00;;;;;;5081274;28;20765;-72
2021/05/31 05:57:39;;;;;;;8.52;4.15;;;32.40;60.70;;;;;;5067246;28;20195;-72
2021/05/31 06:00:18;;;;;;;6.68;4.03;;;32.90;60.70;;;;;;5082706;28;20251;-72
2021/05/31 06:02:45;;;;;;;10.23;4.57;;;33.50;57.70;;;;;;5088345;28;20532;-72
2021/05/31 06:05:11;;;;;;;7.55;4.13;;;33.90;57.40;;;;;;5085489;28;20184;-72
2021/05/31 06:07:37;;;;;;;9.13;4.18;;;34.30;57.10;;;;;;5088387;28;20201;-72
2021/05/31 06:10:04;;;;;;;7.43;3.92;;;34.30;55.40;;;;;;5063386;28;20199;-73
2021/05/31 06:12:30;;;;;;;9.23;3.90;;;34.20;55.70;;;;;;5089402;28;20191;-72
2021/05/31 06:14:56;;;;;;;6.65;3.28;;;34.50;55.50;;;;;;5089779;28;20179;-73
2021/05/31 06:17:22;;;;;;;8.82;3.53;;;34.80;54.20;;;;;;5066946;28;20229;-72
2021/05/31 06:19:48;;;;;;;6.53;3.42;;;34.30;54.10;;;;;;5086831;28;20595;-72
2021/05/31 06:22:13;;;;;;;9.30;3.30;;;34.60;53.90;;;;;;5088127;28;20183;-72
2021/05/31 06:24:39;;;;;;;9.32;3.30;;;34.70;53.90;;;;;;5085130;28;20664;-72
2021/05/31 06:27:06;;;;;;;7.05;3.40;;;34.50;52.40;;;;;;5087585;28;20195;-72
2021/05/31 06:29:32;;;;;;;6.82;3.78;;;34.20;51.60;;;;;;5087542;28;20183;-71
2021/05/31 06:31:57;;;;;;;5.93;3.20;;;33.40;51.90;;;;;;5086558;28;20218;-72
2021/05/31 06:34:23;;;;;;;9.25;3.05;;;32.90;53.30;;;;;;5088192;28;20239;-72
2021/05/31 06:36:54;;;;;;;12.77;3.53;;;33.20;53.50;;;;;;5090012;28;20191;-72
2021/05/31 06:39:20;;;;;;;7.10;3.47;;;33.50;54.30;;;;;;5090913;28;20234;-72
2021/05/31 06:41:46;;;;;;;7.18;3.17;;;33.20;53.80;;;;;;5088724;28;20197;-72
2021/05/31 06:44:11;;;;;;;6.72;2.95;;;33.00;54.20;;;;;;5087970;28;20222;-72
2021/05/31 06:46:37;;;;;;;7.15;3.05;;;33.20;53.30;;;;;;5086423;28;20182;-72
2021/05/31 06:49:02;;;;;;;8.38;3.38;;;33.70;52.30;;;;;;5088623;28;20188;-72
2021/05/31 06:51:28;;;;;;;7.53;2.88;;;33.80;50.90;;;;;;5069668;28;20180;-72
2021/05/31 06:53:54;;;;;;;5.40;2.88;;;33.80;50.40;;;;;;5086862;28;20187;-72
2021/05/31 06:56:21;;;;;;;5.47;3.05;;;33.50;50.30;;;;;;5069901;28;20191;-72
2021/05/31 06:58:47;;;;;;;6.70;2.75;;;33.60;51.30;;;;;;5085672;28;20198;-72
2021/05/31 07:01:12;;;;;;;5.45;2.80;;;33.60;50.00;;;;;;5086419;28;20183;-72
2021/05/31 07:03:39;;;;;;;6.80;2.65;;;33.40;52.10;;;;;;5068640;28;20256;-71
2021/05/31 07:06:05;;;;;;;4.60;2.70;;;32.50;51.30;;;;;;5085883;28;20619;-72
2021/05/31 07:08:32;;;;;;;5.25;2.65;;;32.70;51.00;;;;;;5086831;28;20175;-71
2021/05/31 07:11:01;;;;;;;7.25;2.78;;;32.80;51.30;;;;;;5067905;28;20209;-71
2021/05/31 07:13:29;;;;;;;4.78;2.70;;;33.30;50.80;;;;;;5087633;28;20634;-71
2021/05/31 07:15:58;;;;;;;5.85;2.83;;;33.30;50.00;;;;;;5080602;28;20199;-71
2021/05/31 07:18:24;;;;;;;8.70;2.90;;;33.50;49.80;;;;;;5088941;28;20187;-72
2021/05/31 07:20:52;;;;;;;5.10;2.90;;;33.50;50.30;;;;;;5088061;28;20175;-72
2021/05/31 07:23:19;;;;;;;7.38;3.38;;;32.90;49.60;;;;;;5065016;28;20683;-72
2021/05/31 07:25:45;;;;;;;6.35;2.85;;;33.20;50.20;;;;;;5088433;28;20527;-72
2021/05/31 07:28:11;;;;;;;5.55;2.78;;;33.10;50.10;;;;;;5062585;28;20751;-72
2021/05/31 07:30:38;;;;;;;7.68;2.95;;;33.60;50.50;;;;;;5088136;28;20637;-72
2021/05/31 07:33:04;;;;;;;5.55;2.80;;;33.80;49.10;;;;;;5085940;28;20183;-72
2021/05/31 07:35:30;;;;;;;5.25;2.47;;;33.10;49.20;;;;;;5086070;28;20175;-72
2021/05/31 07:37:55;;;;;;;4.88;2.85;;;33.30;49.10;;;;;;5084970;28;20599;-72
2021/05/31 07:40:22;;;;;;;7.28;3.17;;;33.30;49.20;;;;;;5062540;28;20234;-71
2021/05/31 07:42:48;;;;;;;5.07;2.70;;;33.60;48.50;;;;;;5087011;28;20207;-72
2021/05/31 07:45:17;;;;;;;6.70;2.65;;;33.90;48.00;;;;;;5087452;28;20642;-72
2021/05/31 07:47:43;;;;;;;4.30;2.38;;;34.80;48.10;;;;;;5068249;28;20237;-72
2021/05/31 07:50:10;;;;;;;5.05;2.55;;;35.10;45.70;;;;;;5082480;28;20626;-72
2021/05/31 07:52:36;;;;;;;6.22;2.75;;;35.20;46.70;;;;;;5086552;28;20179;-72
2021/05/31 07:55:03;;;;;;;6.10;2.60;;;35.80;45.50;;;;;;5083475;28;20179;-72
2021/05/31 07:57:29;;;;;;;4.82;2.45;;;34.60;45.80;;;;;;5086424;28;20183;-72
2021/05/31 07:59:55;;;;;;;6.22;2.80;;;34.10;45.80;;;;;;5085225;28;20664;-72
2021/05/31 08:02:23;;;;;;;4.70;2.47;;;34.10;47.20;;;;;;5081613;28;20316;-72
2021/05/31 08:04:48;;;;;;;8.55;2.85;;;34.90;47.00;;;;;;5085826;28;20199;-72
2021/05/31 08:07:14;;;;;;;5.22;2.30;;;34.40;45.90;;;;;;5089480;28;20194;-72
2021/05/31 08:09:40;;;;;;;5.60;2.95;;;35.40;46.80;;;;;;5079171;28;20265;-72
2021/05/31 08:12:06;;;;;;;5.97;2.47;;;36.80;44.70;;;;;;5089032;28;20176;-72
2021/05/31 08:14:32;;;;;;;5.38;2.42;;;37.80;44.20;;;;;;5068230;28;20183;-72
2021/05/31 08:16:58;;;;;;;7.53;2.60;;;38.90;42.20;;;;;;5083918;28;20657;-72
2021/05/31 08:19:26;;;;;;;5.45;2.70;;;39.70;41.50;;;;;;5088512;28;20201;-72
2021/05/31 08:21:52;;;;;;;4.35;2.40;;;40.00;41.10;;;;;;5081083;28;20650;-72
2021/05/31 08:24:19;;;;;;;5.95;2.80;;;38.50;40.00;;;;;;5087868;28;20187;-72
2021/05/31 08:26:46;;;;;;;8.07;2.42;;;37.70;42.00;;;;;;5087136;28;20172;-73
2021/05/31 08:29:12;;;;;;;3.80;2.10;;;38.00;40.30;;;;;;5084685;28;20194;-72
2021/05/31 08:31:38;;;;;;;4.28;2.33;;;37.70;40.90;;;;;;5080575;28;20190;-72
2021/05/31 08:34:04;;;;;;;8.10;2.42;;;36.40;42.10;;;;;;5067368;28;20182;-72
2021/05/31 08:36:30;;;;;;;7.00;2.40;;;36.30;40.70;;;;;;5087328;28;20681;-73
2021/05/31 08:38:58;;;;;;;6.03;2.42;;;36.70;40.60;;;;;;5069320;28;20269;-73
2021/05/31 08:41:28;;;;;;;5.00;2.25;;;36.40;40.60;;;;;;5070463;28;20191;-72
2021/05/31 08:43:55;;;;;;;5.43;2.10;;;36.90;39.30;;;;;;5088562;28;20222;-73
2021/05/31 08:46:21;;;;;;;7.13;2.50;;;36.30;40.10;;;;;;5087991;28;20191;-73
2021/05/31 08:48:46;;;;;;;3.95;2.13;;;36.00;41.10;;;;;;5092296;28;20179;-72
2021/05/31 08:51:12;;;;;;;5.00;2.17;;;36.90;42.50;;;;;;5087148;28;20645;-72
2021/05/31 08:53:43;;;;;;;4.40;2.22;;;36.60;39.80;;;;;;5091238;28;20244;-72
2021/05/31 08:56:08;;;;;;;5.35;2.30;;;36.70;40.40;;;;;;5090597;28;21427;-73
2021/05/31 08:58:34;;;;;;;4.78;2.35;;;36.90;40.80;;;;;;5088810;28;20270;-73
2021/05/31 09:01:00;;;;;;;4.45;2.17;;;35.90;39.70;;;;;;5091415;28;20190;-72
2021/05/31 09:03:26;;;;;;;8.98;2.72;;;35.30;41.10;;;;;;5088657;28;20222;-72
2021/05/31 09:06:02;;;;;;;5.43;2.78;;;34.80;42.60;;;;;;5091418;28;20183;-73
2021/05/31 09:08:28;;;;;;;5.55;2.58;;;34.00;43.30;;;;;;5089606;28;20180;-72
2021/05/31 09:11:04;;;;;;;7.43;2.78;;;32.90;43.20;;;;;;5090038;28;20687;-72
2021/05/31 09:13:38;;;;;;;5.63;2.30;;;33.20;43.70;;;;;;5090882;28;20199;-72
2021/05/31 09:16:10;;;;;;;5.60;2.58;;;33.50;43.10;;;;;;5087265;28;20545;-72
2021/05/31 09:18:37;;;;;;;5.20;2.45;;;34.50;42.50;;;;;;5085453;28;20187;-73
2021/05/31 09:21:20;;;;;;;5.57;2.38;;;35.30;41.10;;;;;;5052818;28;20195;-72
2021/05/31 09:23:52;;;;;;;5.57;2.40;;;35.30;43.30;;;;;;5089638;28;20210;-72
2021/05/31 09:26:17;;;;;;;4.95;2.47;;;35.00;42.30;;;;;;5082350;28;20637;-72
2021/05/31 09:29:04;;;;;;;5.97;2.50;;;34.30;43.30;;;;;;5071015;28;20211;-73
2021/05/31 09:31:30;;;;;;;6.30;2.33;;;33.70;43.50;;;;;;5084529;28;20190;-71
2021/05/31 09:33:58;;;;;;;4.55;2.42;;;33.40;43.80;;;;;;5088555;28;20187;-72
2021/05/31 09:36:25;;;;;;;6.30;2.70;;;34.50;44.50;;;;;;5084029;28;20187;-72
2021/05/31 09:38:51;;;;;;;6.90;2.72;;;35.00;42.70;;;;;;5086380;28;20233;-72
2021/05/31 09:41:32;;;;;;;6.80;2.90;;;34.90;43.60;;;;;;5091750;28;20199;-72
2021/05/31 09:44:04;;;;;;;6.47;2.60;;;34.60;43.00;;;;;;5085602;28;20199;-72
2021/05/31 09:46:42;;;;;;;6.85;3.00;;;34.10;43.70;;;;;;5087298;28;20180;-72
2021/05/31 09:49:22;;;;;;;7.20;3.08;;;32.20;45.50;;;;;;5085676;28;20187;-72
2021/05/31 09:52:00;;;;;;;7.45;2.63;;;31.60;46.30;;;;;;5089331;28;20266;-72
2021/05/31 09:54:38;;;;;;;7.93;2.83;;;32.20;46.50;;;;;;5082761;28;20282;-72
2021/05/31 09:57:35;;;;;;;5.05;2.67;;;32.80;46.30;;;;;;5085562;28;20190;-72
2021/05/31 10:00:08;;;;;;;4.85;2.67;;;33.10;45.10;;;;;;5090555;28;20187;-72
2021/05/31 10:10:33;;;;;;;4.60;2.78;;;34.40;45.90;;;;;;5088209;28;20239;-72
2021/05/31 10:13:00;;;;;;;6.07;2.65;;;33.30;43.90;;;;;;5069062;28;20195;-72
2021/05/31 10:15:33;;;;;;;6.78;2.78;;;33.90;44.50;;;;;;5088832;28;20187;-72
2021/05/31 10:18:01;;;;;;;5.43;2.78;;;33.80;44.90;;;;;;5088658;28;20183;-72
2021/05/31 10:20:29;;;;;;;4.38;2.50;;;33.60;44.70;;;;;;5087545;28;20180;-72
2021/05/31 10:22:58;;;;;;;7.00;2.55;;;33.00;44.40;;;;;;5071291;28;20175;-71
2021/05/31 10:25:27;;;;;;;4.68;2.38;;;33.20;44.50;;;;;;5087349;28;20649;-72
2021/05/31 10:28:11;;;;;;;5.32;2.65;;;34.00;44.70;;;;;;5084439;28;20198;-72
2021/05/31 10:30:41;;;;;;;5.30;2.70;;;33.90;44.50;;;;;;5087647;28;20603;-72
2021/05/31 10:33:26;;;;;;;7.28;2.60;;;32.90;43.80;;;;;;5089097;28;20778;-72
2021/05/31 10:35:54;;;;;;;5.68;2.85;;;32.30;45.10;;;;;;5082962;28;20567;-72
2021/05/31 10:38:22;;;;;;;5.53;2.38;;;31.50;45.50;;;;;;5088045;28;20222;-72
2021/05/31 10:40:52;;;;;;;8.18;2.72;;;31.10;46.40;;;;;;5087850;28;20222;-72
2021/05/31 10:43:20;;;;;;;5.13;2.35;;;31.10;46.60;;;;;;5071788;28;20206;-72
2021/05/31 10:45:47;;;;;;;5.28;2.42;;;31.00;47.10;;;;;;5063512;28;20176;-73
2021/05/31 10:48:22;;;;;;;5.05;2.83;;;31.40;46.00;;;;;;5088576;28;20278;-72
2021/05/31 10:50:49;;;;;;;4.85;2.75;;;31.40;45.50;;;;;;5087702;28;20175;-72
2021/05/31 10:53:25;;;;;;;6.03;2.92;;;31.40;46.80;;;;;;5086961;28;20654;-73
2021/05/31 10:56:11;;;;;;;4.25;2.50;;;32.50;45.10;;;;;;5080531;28;20198;-73
2021/05/31 10:58:48;;;;;;;5.63;2.70;;;32.20;45.50;;;;;;5082914;28;20187;-72
2021/05/31 11:01:20;;;;;;;6.65;2.40;;;31.40;46.90;;;;;;5069890;28;20645;-72
2021/05/31 11:03:48;;;;;;;4.65;2.70;;;32.10;46.40;;;;;;5067528;28;20203;-72
2021/05/31 11:06:16;;;;;;;7.88;2.90;;;33.20;46.40;;;;;;5086864;28;20276;-73
2021/05/31 11:08:53;;;;;;;6.25;2.65;;;33.60;45.10;;;;;;5082080;28;20213;-72
2021/05/31 11:11:28;;;;;;;6.03;2.67;;;33.40;45.90;;;;;;5070056;28;20182;-72
2021/05/31 11:13:54;;;;;;;4.85;2.53;;;33.60;46.60;;;;;;5084090;28;20191;-72
2021/05/31 11:16:21;;;;;;;7.50;2.63;;;33.60;45.50;;;;;;5086572;28;20641;-72
2021/05/31 11:18:48;;;;;;;5.65;2.75;;;32.80;45.50;;;;;;5086808;28;20581;-73
2021/05/31 11:21:39;;;;;;;5.28;2.58;;;32.20;46.00;;;;;;5087692;28;20191;-72
2021/05/31 11:24:12;;;;;;;7.28;3.00;;;32.00;46.40;;;;;;5085878;28;20677;-72
2021/05/31 11:26:40;;;;;;;6.43;2.72;;;31.70;46.00;;;;;;5086454;28;20233;-72
2021/05/31 11:29:08;;;;;;;5.75;2.95;;;30.60;47.40;;;;;;5069785;28;20185;-72
2021/05/31 11:31:35;;;;;;;9.40;3.20;;;30.30;47.50;;;;;;5068994;28;20180;-72
2021/05/31 11:34:02;;;;;;;7.65;3.05;;;30.10;49.50;;;;;;5084663;28;20248;-72
2021/05/31 11:36:36;;;;;;;5.20;3.05;;;30.50;48.80;;;;;;5084378;28;20171;-72
2021/05/31 11:39:14;;;;;;;6.15;3.03;;;30.60;47.90;;;;;;5084937;28;20265;-72
2021/05/31 11:41:42;;;;;;;7.43;3.00;;;31.10;48.50;;;;;;5088080;28;20186;-72
2021/05/31 11:44:13;;;;;;;5.90;2.80;;;30.70;47.00;;;;;;5070951;28;20246;-72
2021/05/31 11:46:51;;;;;;;6.28;3.00;;;30.60;47.70;;;;;;5067068;28;20186;-72
2021/05/31 11:49:19;;;;;;;6.72;3.20;;;31.00;48.10;;;;;;5088982;28;20177;-72
2021/05/31 11:52:14;;;;;;;6.97;2.92;;;30.90;48.80;;;;;;5079239;28;20194;-73
2021/05/31 11:54:42;;;;;;;8.50;3.25;;;31.20;48.40;;;;;;5043696;28;20207;-72
2021/05/31 11:57:13;;;;;;;7.63;2.72;;;32.10;47.20;;;;;;5081340;28;20233;-73
2021/05/31 11:59:44;;;;;;;6.25;2.92;;;32.00;47.20;;;;;;5083569;28;20653;-73
2021/05/31 12:02:15;;;;;;;5.63;2.65;;;32.00;46.90;;;;;;5068711;28;20197;-73
2021/05/31 12:04:47;;;;;;;7.95;3.30;;;32.00;46.30;;;;;;5068167;28;20217;-73
2021/05/31 12:07:15;;;;;;;5.68;3.10;;;30.90;49.40;;;;;;5085307;28;20171;-72
2021/05/31 12:09:43;;;;;;;7.68;3.38;;;29.90;49.30;;;;;;5061949;28;20555;-73
2021/05/31 12:12:10;;;;;;;7.63;3.20;;;28.80;49.30;;;;;;5086085;28;20273;-73
2021/05/31 12:14:47;;;;;;;7.22;3.53;;;28.00;51.90;;;;;;5087014;28;20187;-72
2021/05/31 12:17:14;;;;;;;8.45;3.53;;;27.60;52.20;;;;;;5083930;28;20198;-72
2021/05/31 12:19:41;;;;;;;9.13;3.75;;;27.10;53.70;;;;;;5063327;28;20542;-72
2021/05/31 12:22:08;;;;;;;9.07;3.88;;;26.60;55.00;;;;;;5089848;28;20190;-73
2021/05/31 12:24:35;;;;;;;7.03;3.80;;;25.90;53.80;;;;;;5091336;28;20259;-73
2021/05/31 12:27:02;;;;;;;6.78;3.97;;;25.40;55.90;;;;;;5090783;28;20254;-73
2021/05/31 12:29:39;;;;;;;9.25;3.78;;;25.30;56.30;;;;;;5090814;28;20205;-73
2021/05/31 12:32:13;;;;;;;9.30;4.30;;;25.20;56.60;;;;;;5083140;28;20175;-72
2021/05/31 12:34:40;;;;;;;7.95;4.05;;;25.30;55.90;;;;;;5069414;28;20675;-72
2021/05/31 12:37:09;;;;;;;8.25;3.85;;;25.30;55.50;;;;;;5092783;28;20171;-72
2021/05/31 12:39:39;;;;;;;9.13;4.15;;;25.50;57.40;;;;;;5068828;28;20223;-72
2021/05/31 12:42:05;;;;;;;7.97;3.60;;;25.60;56.50;;;;;;5089536;28;20234;-73
2021/05/31 12:44:31;;;;;;;9.88;3.55;;;25.40;55.70;;;;;;5085742;28;20203;-73
2021/05/31 12:47:11;;;;;;;9.25;3.70;;;25.20;56.50;;;;;;5090024;28;20183;-72
2021/05/31 12:49:49;;;;;;;7.05;3.45;;;24.90;55.20;;;;;;5089226;28;20565;-72
2021/05/31 12:52:27;;;;;;;6.55;3.33;;;24.80;57.20;;;;;;5089512;28;20175;-72
2021/05/31 12:55:22;;;;;;;8.10;3.75;;;24.90;55.10;;;;;;5086499;28;20256;-72
2021/05/31 12:57:48;;;;;;;8.07;3.72;;;24.90;56.70;;;;;;5085534;28;20273;-72
2021/05/31 13:00:20;;;;;;;8.35;3.58;;;24.90;56.40;;;;;;5091177;28;20209;-72
2021/05/31 13:02:48;;;;;;;6.47;3.17;;;24.90;56.80;;;;;;5087781;28;20952;-72
2021/05/31 13:05:16;;;;;;;7.60;3.53;;;24.80;56.50;;;;;;5090695;28;20228;-72
2021/05/31 13:07:48;;;;;;;6.90;3.20;;;25.10;58.30;;;;;;5084936;28;20187;-72
2021/05/31 13:10:20;;;;;;;8.70;3.80;;;25.40;56.40;;;;;;5090329;28;20665;-72
2021/05/31 13:12:55;;;;;;;9.05;3.95;;;25.50;55.80;;;;;;5085345;28;20600;-72
2021/05/31 13:15:34;;;;;;;7.03;3.90;;;25.20;56.70;;;;;;5090031;28;20179;-72